createdAt,value
2023-03-26T00:04:28.068Z,2.92
2023-03-26T00:09:48.971Z,1.70
2023-03-26T00:15:10.541Z,0.80
2023-03-26T00:20:34.687Z,0.98
2023-03-26T00:25:56.791Z,1.40
2023-03-26T00:31:18.160Z,1.30
2023-03-26T00:36:39.060Z,2.55
2023-03-26T00:41:59.679Z,2.15
2023-03-26T00:47:21.324Z,1.88
2023-03-26T00:52:45.051Z,1.02
2023-03-26T00:58:06.330Z,0.85
2023-03-26T01:03:33.826Z,2.03
2023-03-26T01:09:00.416Z,1.10
2023-03-26T01:14:25.068Z,0.98
2023-03-26T01:20:13.246Z,0.50
2023-03-26T01:25:43.292Z,0.90
2023-03-26T01:36:44.670Z,1.77
2023-03-26T01:42:21.613Z,2.42
2023-03-26T01:47:44.034Z,5.18
2023-03-26T01:53:06.161Z,1.45
2023-03-26T01:58:41.710Z,2.50
2023-03-26T02:04:11.572Z,0.95
2023-03-26T02:09:39.293Z,1.95
2023-03-26T02:15:01.895Z,2.20
2023-03-26T02:20:22.986Z,1.02
2023-03-26T02:25:43.922Z,3.00
2023-03-26T02:31:05.643Z,1.00
2023-03-26T02:36:30.296Z,2.88
2023-03-26T02:41:54.666Z,1.67
2023-03-26T02:47:15.908Z,0.93
2023-03-26T02:52:49.092Z,0.73
2023-03-26T02:58:12.308Z,1.73
2023-03-26T03:03:34.602Z,1.42
2023-03-26T03:09:19.056Z,0.75
2023-03-26T03:14:58.546Z,2.10
2023-03-26T03:20:19.437Z,0.60
2023-03-26T03:25:41.711Z,1.30
2023-03-26T03:31:03.631Z,1.85
2023-03-26T03:36:28.004Z,3.13
2023-03-26T03:41:59.020Z,0.75
2023-03-26T03:47:20.438Z,0.93
2023-03-26T03:52:41.804Z,1.30
2023-03-26T03:58:03.853Z,4.18
2023-03-26T04:03:33.930Z,1.00
2023-03-26T04:08:58.455Z,2.97
2023-03-26T04:14:20.124Z,1.55
2023-03-26T04:20:14.929Z,1.58
2023-03-26T04:25:39.466Z,1.98
2023-03-26T04:31:29.136Z,0.82
2023-03-26T04:36:54.679Z,1.87
2023-03-26T04:42:20.088Z,6.88
2023-03-26T04:48:02.391Z,0.65
2023-03-26T04:53:24.266Z,1.67
2023-03-26T04:59:25.999Z,2.72
2023-03-26T05:04:50.036Z,0.52
2023-03-26T05:10:15.345Z,1.40
2023-03-26T05:16:05.947Z,2.97
2023-03-26T05:21:42.462Z,1.85
2023-03-26T05:27:03.531Z,1.85
2023-03-26T05:32:36.570Z,3.65
2023-03-26T05:37:58.242Z,2.45
2023-03-26T05:43:19.886Z,1.00
2023-03-26T05:48:48.053Z,1.23
2023-03-26T05:54:09.208Z,0.77
2023-03-26T05:59:48.504Z,2.43
2023-03-26T06:05:43.062Z,2.03
2023-03-26T06:11:12.619Z,1.45
2023-03-26T06:16:33.833Z,3.13
2023-03-26T06:22:14.581Z,4.65
2023-03-26T06:27:54.469Z,3.85
2023-03-26T06:33:48.797Z,1.73
2023-03-26T06:39:10.216Z,2.28
2023-03-26T06:44:37.614Z,5.70
2023-03-26T06:50:17.023Z,2.97
2023-03-26T06:55:49.969Z,3.67
2023-03-26T07:01:16.937Z,3.00
2023-03-26T07:06:56.581Z,4.23
2023-03-26T07:12:36.244Z,3.63
2023-03-26T07:18:17.375Z,3.58
2023-03-26T07:23:39.963Z,2.63
2023-03-26T07:29:45.403Z,3.47
2023-03-26T07:35:49.104Z,2.40
2023-03-26T07:41:50.494Z,1.30
2023-03-26T07:47:33.849Z,4.32
2023-03-26T07:53:17.087Z,4.20
2023-03-26T07:59:22.396Z,3.17
2023-03-26T08:05:20.127Z,1.65
2023-03-26T08:11:40.927Z,2.75
2023-03-26T08:17:40.628Z,1.75
2023-03-26T08:23:12.075Z,4.30
2023-03-26T08:28:46.008Z,1.60
2023-03-26T08:34:11.496Z,3.72
2023-03-26T08:39:32.244Z,5.65
2023-03-26T08:45:30.367Z,2.38
2023-03-26T08:51:05.240Z,2.85
2023-03-26T08:56:49.428Z,2.22
2023-03-26T09:02:53.387Z,0.65
2023-03-26T09:08:14.135Z,1.42
2023-03-26T09:13:53.314Z,4.75
2023-03-26T09:19:44.451Z,0.70
2023-03-26T09:25:41.615Z,1.42
2023-03-26T09:31:36.450Z,4.25
2023-03-26T09:37:14.342Z,1.98
2023-03-26T09:42:53.705Z,1.40
2023-03-26T09:48:54.193Z,1.80
2023-03-26T09:54:30.844Z,2.38
2023-03-26T10:00:16.654Z,4.03
2023-03-26T10:05:52.747Z,3.05
2023-03-26T10:11:27.000Z,0.77
2023-03-26T10:17:33.831Z,3.47
2023-03-26T10:23:12.967Z,5.35
2023-03-26T10:28:52.724Z,2.55
2023-03-26T10:34:35.118Z,1.92
2023-03-26T10:40:28.509Z,6.93
2023-03-26T10:46:22.884Z,2.95
2023-03-26T10:51:56.040Z,1.23
2023-03-26T10:57:34.694Z,4.53
2023-03-26T11:03:20.388Z,1.85
2023-03-26T11:08:52.827Z,1.30
2023-03-26T11:14:42.602Z,2.35
2023-03-26T11:20:07.606Z,4.22
2023-03-26T11:25:43.490Z,6.15
2023-03-26T11:31:13.398Z,2.47
2023-03-26T11:36:41.313Z,3.72
2023-03-26T11:42:12.679Z,2.85
2023-03-26T11:47:44.957Z,2.33
2023-03-26T11:53:18.016Z,4.47
2023-03-26T11:58:50.265Z,5.03
2023-03-26T12:04:14.629Z,3.03
2023-03-26T12:09:35.524Z,2.53
2023-03-26T12:14:56.346Z,1.23
2023-03-26T12:20:26.231Z,3.42
2023-03-26T12:26:05.663Z,2.63
2023-03-26T12:31:26.658Z,4.70
2023-03-26T12:36:56.601Z,1.92
2023-03-26T12:48:09.967Z,2.38
2023-03-26T12:53:57.836Z,2.25
2023-03-26T12:59:24.363Z,5.18
2023-03-26T13:05:06.062Z,3.40
2023-03-26T13:11:12.628Z,4.10
2023-03-26T13:16:45.193Z,5.82
2023-03-26T13:22:24.837Z,5.72
2023-03-26T13:27:56.008Z,2.73
2023-03-26T13:33:45.042Z,6.20
2023-03-26T13:39:37.771Z,3.10
2023-03-26T13:45:05.701Z,2.13
2023-03-26T13:50:35.617Z,3.67
2023-03-26T13:55:59.685Z,2.85
2023-03-26T14:01:46.097Z,1.98
2023-03-26T14:07:29.030Z,2.80
2023-03-26T14:12:57.577Z,4.10
2023-03-26T14:18:44.262Z,3.03
2023-03-26T14:24:34.716Z,1.77
2023-03-26T14:30:23.253Z,3.97
2023-03-26T14:36:02.719Z,3.55
2023-03-26T14:41:27.904Z,1.47
2023-03-26T14:46:48.848Z,10.07
2023-03-26T14:52:31.266Z,3.58
2023-03-26T14:58:16.522Z,2.72
2023-03-26T15:03:59.182Z,6.93
2023-03-26T15:09:46.326Z,2.72
2023-03-26T15:15:28.706Z,4.57
2023-03-26T15:21:20.206Z,7.78
2023-03-26T15:26:47.226Z,7.40
2023-03-26T15:32:30.305Z,2.80
2023-03-26T15:38:06.168Z,6.07
2023-03-26T15:44:05.065Z,3.13
2023-03-26T15:49:42.747Z,4.20
2023-03-26T15:55:21.494Z,2.58
2023-03-26T16:00:56.126Z,4.68
2023-03-26T16:06:46.574Z,1.92
2023-03-26T16:12:16.436Z,4.50
2023-03-26T16:18:19.518Z,2.03
2023-03-26T16:23:47.763Z,6.55
2023-03-26T16:29:18.362Z,7.63
2023-03-26T16:34:57.333Z,1.20
2023-03-26T16:40:18.212Z,3.72
2023-03-26T16:45:58.104Z,4.20
2023-03-26T16:51:49.392Z,4.87
2023-03-26T16:57:24.682Z,4.38
2023-03-26T17:03:17.896Z,5.82
2023-03-26T17:08:39.145Z,3.88
2023-03-26T17:14:14.159Z,2.55
2023-03-26T17:19:41.965Z,3.42
2023-03-26T17:25:21.637Z,4.25
2023-03-26T17:31:23.807Z,4.28
2023-03-26T17:36:46.016Z,3.95
2023-03-26T17:42:16.133Z,2.65
2023-03-26T17:48:15.555Z,2.65
2023-03-26T17:53:37.844Z,5.90
2023-03-26T17:59:11.526Z,5.50
2023-03-26T18:04:39.418Z,3.97
2023-03-26T18:10:34.572Z,4.75
2023-03-26T18:16:01.470Z,4.72
2023-03-26T18:21:28.607Z,4.55
2023-03-26T18:26:55.445Z,4.47
2023-03-26T18:32:22.290Z,5.38
2023-03-26T18:37:46.022Z,6.00
2023-03-26T18:43:28.579Z,6.88
2023-03-26T18:48:55.735Z,5.80
2023-03-26T18:54:19.633Z,4.10
2023-03-26T18:59:45.242Z,5.70
2023-03-26T19:05:07.564Z,4.75
2023-03-26T19:10:28.954Z,4.22
2023-03-26T19:15:52.150Z,4.30
2023-03-26T19:21:14.732Z,4.57
2023-03-26T19:26:36.744Z,5.53
2023-03-26T19:32:20.649Z,4.28
2023-03-26T19:37:55.370Z,5.32
2023-03-26T19:43:17.423Z,7.80
2023-03-26T19:48:45.760Z,5.13
2023-03-26T19:54:16.426Z,6.07
2023-03-26T19:59:37.087Z,6.50
2023-03-26T20:04:57.951Z,4.88
2023-03-26T20:10:18.960Z,4.80
2023-03-26T20:15:40.941Z,3.17
2023-03-26T20:21:02.367Z,5.95
2023-03-26T20:26:24.260Z,7.72
2023-03-26T20:31:46.078Z,9.35
2023-03-26T20:37:07.127Z,4.82
2023-03-26T20:42:28.048Z,5.47
2023-03-26T20:47:50.586Z,11.70
2023-03-26T20:53:16.513Z,15.65
2023-03-26T20:58:39.175Z,38.63
2023-03-26T21:04:00.168Z,16.25
2023-03-26T21:09:25.257Z,19.83
2023-03-26T21:14:46.725Z,23.77
2023-03-26T21:20:13.489Z,21.40
2023-03-26T21:25:54.092Z,20.38
2023-03-26T21:36:42.037Z,24.15
2023-03-26T21:42:04.720Z,20.33
2023-03-26T21:47:27.074Z,19.35
2023-03-26T21:52:51.016Z,16.42
2023-03-26T21:58:52.475Z,7.68
2023-03-26T22:04:34.808Z,6.25
2023-03-26T22:09:55.856Z,5.25
2023-03-26T22:15:18.474Z,7.10
2023-03-26T22:20:39.553Z,5.50
2023-03-26T22:26:00.469Z,4.75
2023-03-26T22:31:21.326Z,3.65
2023-03-26T22:36:42.117Z,4.45
2023-03-26T22:42:03.859Z,5.18
2023-03-26T22:47:25.010Z,3.17
2023-03-26T22:52:46.260Z,6.57
2023-03-26T22:58:06.916Z,3.97
2023-03-26T23:03:35.108Z,4.07
2023-03-26T23:08:57.079Z,4.18
2023-03-26T23:14:19.121Z,4.05
2023-03-26T23:19:40.076Z,10.52
2023-03-26T23:25:00.980Z,7.60
2023-03-26T23:30:21.743Z,9.70
2023-03-26T23:35:44.241Z,9.85
2023-03-26T23:41:06.171Z,4.75
2023-03-26T23:46:34.802Z,6.68
2023-03-26T23:51:55.738Z,9.60
2023-03-26T23:57:18.469Z,7.40
